createdAt,value
2019-03-30T00:01:12.340Z,101761.81
2019-03-30T00:03:36.784Z,101756.03
2019-03-30T00:06:01.279Z,101761.74
2019-03-30T00:08:25.870Z,101754.55
2019-03-30T00:10:50.619Z,101757.06
2019-03-30T00:13:15.052Z,101755.00
2019-03-30T00:15:39.534Z,101752.11
2019-03-30T00:18:04.031Z,101755.14
2019-03-30T00:20:28.466Z,101750.41
2019-03-30T00:22:52.899Z,101755.97
2019-03-30T00:25:17.317Z,101751.91
2019-03-30T00:27:41.763Z,101745.34
2019-03-30T00:30:07.595Z,101738.33
2019-03-30T00:32:32.049Z,101741.80
2019-03-30T00:34:56.468Z,101734.61
2019-03-30T00:37:20.912Z,101737.46
2019-03-30T00:39:45.333Z,101740.51
2019-03-30T00:42:09.738Z,101728.69
2019-03-30T00:44:34.265Z,101729.72
2019-03-30T00:46:58.698Z,101725.97
2019-03-30T00:49:23.129Z,101723.10
2019-03-30T00:51:47.665Z,101727.97
2019-03-30T00:54:12.248Z,101719.05
2019-03-30T00:56:36.682Z,101717.14
2019-03-30T00:59:01.227Z,101714.79
2019-03-30T01:01:25.813Z,101708.69
2019-03-30T01:03:50.323Z,101709.33
2019-03-30T01:06:15.000Z,101709.97
2019-03-30T01:08:39.479Z,101706.78
2019-03-30T01:11:04.173Z,101701.14
2019-03-30T01:13:28.684Z,101700.41
2019-03-30T01:15:58.273Z,101698.71
2019-03-30T01:18:22.700Z,101705.95
2019-03-30T01:20:47.333Z,101695.23
2019-03-30T01:23:11.837Z,101694.45
2019-03-30T01:25:36.258Z,101694.39
2019-03-30T01:28:00.706Z,101684.87
2019-03-30T01:30:25.170Z,101686.41
2019-03-30T01:32:49.716Z,101682.78
2019-03-30T01:35:14.309Z,101678.13
2019-03-30T01:37:38.768Z,101681.66
2019-03-30T01:40:03.689Z,101674.48
2019-03-30T01:42:28.116Z,101679.03
2019-03-30T01:44:52.573Z,101673.33
2019-03-30T01:47:17.000Z,101671.95
2019-03-30T01:49:41.513Z,101670.67
2019-03-30T01:52:05.936Z,101668.32
2019-03-30T01:54:30.467Z,101664.53
2019-03-30T01:56:54.890Z,101659.83
2019-03-30T01:59:19.337Z,101660.59
2019-03-30T02:01:43.764Z,101657.97
2019-03-30T02:04:08.297Z,101653.28
2019-03-30T02:06:32.790Z,101647.44
2019-03-30T02:08:57.305Z,101646.86
2019-03-30T02:11:21.795Z,101651.61
2019-03-30T02:13:46.233Z,101647.13
2019-03-30T02:16:10.661Z,101652.09
2019-03-30T02:18:35.254Z,101644.14
2019-03-30T02:20:59.740Z,101645.45
2019-03-30T02:23:24.259Z,101640.57
2019-03-30T02:25:48.718Z,101637.28
2019-03-30T02:28:13.273Z,101634.83
2019-03-30T02:30:38.261Z,101638.74
2019-03-30T02:33:02.756Z,101635.23
2019-03-30T02:35:27.277Z,101640.20
2019-03-30T02:37:51.780Z,101638.73
2019-03-30T02:40:16.300Z,101636.23
2019-03-30T02:42:40.707Z,101624.85
2019-03-30T02:45:06.584Z,101630.48
2019-03-30T02:47:31.085Z,101627.70
2019-03-30T02:49:55.540Z,101605.87
2019-03-30T02:52:19.968Z,101626.30
2019-03-30T02:54:44.413Z,101628.67
2019-03-30T02:57:08.906Z,101628.23
2019-03-30T02:59:33.372Z,101628.29
2019-03-30T03:01:57.967Z,101623.80
2019-03-30T03:04:22.414Z,101616.98
2019-03-30T03:06:46.839Z,101609.07
2019-03-30T03:09:11.286Z,101610.98
2019-03-30T03:11:35.698Z,101607.57
2019-03-30T03:14:00.272Z,101607.63
2019-03-30T03:16:27.317Z,101599.67
2019-03-30T03:18:50.816Z,101599.89
2019-03-30T03:21:15.223Z,101601.70
2019-03-30T03:23:39.689Z,101599.25
2019-03-30T03:26:04.169Z,101599.42
2019-03-30T03:28:28.597Z,101599.73
2019-03-30T03:30:53.100Z,101604.94
2019-03-30T03:33:17.512Z,101601.57
2019-03-30T03:35:41.954Z,101598.25
2019-03-30T03:38:06.387Z,101600.08
2019-03-30T03:40:30.841Z,101595.44
2019-03-30T03:42:55.330Z,101587.74
2019-03-30T03:45:19.778Z,101588.95
2019-03-30T03:47:44.275Z,101588.98
2019-03-30T03:50:10.913Z,101593.73
2019-03-30T03:52:35.774Z,101593.97
2019-03-30T03:55:00.603Z,101591.59
2019-03-30T03:57:27.972Z,101592.17
2019-03-30T03:59:53.556Z,101589.99
2019-03-30T04:02:19.714Z,101574.98
2019-03-30T04:04:47.614Z,101584.50
2019-03-30T04:07:13.658Z,101576.97
2019-03-30T04:09:40.282Z,101568.09
2019-03-30T04:12:07.909Z,101569.10
2019-03-30T04:14:35.143Z,101563.17
2019-03-30T04:16:59.559Z,101562.00
2019-03-30T04:19:23.988Z,101560.62
2019-03-30T04:21:48.545Z,101558.02
2019-03-30T04:24:12.979Z,101559.39
2019-03-30T04:26:37.400Z,101555.44
2019-03-30T04:29:01.826Z,101554.48
2019-03-30T04:31:26.266Z,101553.48
2019-03-30T04:33:50.689Z,101550.48
2019-03-30T04:36:15.124Z,101545.56
2019-03-30T04:38:39.550Z,101542.50
2019-03-30T04:41:04.127Z,101543.13
2019-03-30T04:43:28.530Z,101543.16
2019-03-30T04:45:52.974Z,101541.56
2019-03-30T04:48:17.391Z,101542.77
2019-03-30T04:50:41.902Z,101536.02
2019-03-30T04:53:06.319Z,101528.68
2019-03-30T04:55:30.753Z,101532.42
2019-03-30T04:57:57.723Z,101531.86
2019-03-30T05:00:21.483Z,101525.70
2019-03-30T05:02:45.912Z,101530.69
2019-03-30T05:05:10.516Z,101521.92
2019-03-30T05:07:34.932Z,101519.81
2019-03-30T05:09:59.361Z,101521.58
2019-03-30T05:12:23.781Z,101521.92
2019-03-30T05:14:48.412Z,101518.39
2019-03-30T05:17:12.817Z,101529.14
2019-03-30T05:19:37.320Z,101523.41
2019-03-30T05:22:12.016Z,101522.84
2019-03-30T05:24:27.934Z,101517.69
2019-03-30T05:26:52.384Z,101522.45
2019-03-30T05:29:16.788Z,101523.17
2019-03-30T05:31:41.298Z,101525.45
2019-03-30T05:34:05.793Z,101516.33
2019-03-30T05:36:30.272Z,101516.66
2019-03-30T05:38:54.687Z,101517.63
2019-03-30T05:41:19.128Z,101522.52
2019-03-30T05:43:43.541Z,101518.01
2019-03-30T05:46:08.030Z,101524.76
2019-03-30T05:48:32.454Z,101524.14
2019-03-30T05:50:56.898Z,101527.09
2019-03-30T05:53:21.442Z,101526.88
2019-03-30T05:55:45.887Z,101526.91
2019-03-30T05:58:10.312Z,101521.47
2019-03-30T06:00:34.738Z,101528.61
2019-03-30T06:02:59.402Z,101527.44
2019-03-30T06:05:23.844Z,101526.17
2019-03-30T06:07:48.272Z,101526.58
2019-03-30T06:10:13.567Z,101524.19
2019-03-30T06:12:38.164Z,101524.86
2019-03-30T06:15:02.590Z,101526.20
2019-03-30T06:17:27.058Z,101517.46
2019-03-30T06:19:51.478Z,101518.92
2019-03-30T06:22:15.998Z,101517.58
2019-03-30T06:24:40.418Z,101517.00
2019-03-30T06:27:04.941Z,101513.22
2019-03-30T06:29:29.376Z,101516.41
2019-03-30T06:31:53.821Z,101514.59
2019-03-30T06:34:18.443Z,101513.73
2019-03-30T06:36:42.913Z,101513.89
2019-03-30T06:39:07.402Z,101506.55
2019-03-30T06:41:31.850Z,101504.47
2019-03-30T06:43:56.493Z,101505.24
2019-03-30T06:46:20.920Z,101502.13
2019-03-30T06:48:45.339Z,101502.61
2019-03-30T06:51:09.779Z,101504.58
2019-03-30T06:53:34.837Z,101500.12
2019-03-30T06:55:59.357Z,101499.34
2019-03-30T06:58:23.782Z,101494.29
2019-03-30T07:00:48.772Z,101500.07
2019-03-30T07:03:13.367Z,101499.33
2019-03-30T07:05:41.934Z,101499.67
2019-03-30T07:08:09.480Z,101497.66
2019-03-30T07:10:34.043Z,101508.47
2019-03-30T07:13:01.176Z,101493.53
2019-03-30T07:15:27.749Z,101499.10
2019-03-30T07:17:54.065Z,101499.68
2019-03-30T07:20:29.285Z,101503.50
2019-03-30T07:22:53.963Z,101494.80
2019-03-30T07:25:18.391Z,101491.56
2019-03-30T07:27:42.832Z,101487.55
2019-03-30T07:30:08.679Z,101482.84
2019-03-30T07:32:33.200Z,101477.45
2019-03-30T07:34:57.628Z,101476.39
2019-03-30T07:37:22.150Z,101480.37
2019-03-30T07:39:46.566Z,101484.50
2019-03-30T07:42:11.114Z,101485.13
2019-03-30T07:44:35.544Z,101489.70
2019-03-30T07:46:59.986Z,101483.66
2019-03-30T07:49:24.407Z,101483.58
2019-03-30T07:51:48.851Z,101480.47
2019-03-30T07:54:13.269Z,101475.05
2019-03-30T07:56:37.710Z,101479.33
2019-03-30T07:59:02.241Z,101474.86
2019-03-30T08:01:26.704Z,101475.33
2019-03-30T08:03:51.167Z,101470.99
2019-03-30T08:06:15.595Z,101467.84
2019-03-30T08:08:40.037Z,101476.50
2019-03-30T08:11:04.439Z,101469.65
2019-03-30T08:13:29.268Z,101477.06
2019-03-30T08:15:53.689Z,101468.77
2019-03-30T08:18:18.128Z,101472.27
2019-03-30T08:20:42.536Z,101469.78
2019-03-30T08:23:07.119Z,101467.71
2019-03-30T08:25:31.531Z,101466.72
2019-03-30T08:27:56.038Z,101467.22
2019-03-30T08:30:20.514Z,101462.55
2019-03-30T08:32:44.958Z,101456.76
2019-03-30T08:35:09.508Z,101452.13
2019-03-30T08:37:34.021Z,101454.13
2019-03-30T08:39:58.439Z,101445.71
2019-03-30T08:42:22.892Z,101445.04
2019-03-30T08:44:47.318Z,101448.89
2019-03-30T08:47:11.760Z,101447.32
2019-03-30T08:49:36.198Z,101441.97
2019-03-30T08:52:00.598Z,101448.80
2019-03-30T08:54:25.121Z,101441.62
2019-03-30T08:56:49.522Z,101438.03
2019-03-30T08:59:13.956Z,101436.14
2019-03-30T09:01:38.375Z,101432.88
2019-03-30T09:04:02.865Z,101431.66
2019-03-30T09:06:27.313Z,101420.36
2019-03-30T09:08:51.821Z,101427.80
2019-03-30T09:11:16.244Z,101427.28
2019-03-30T09:13:40.828Z,101415.94
2019-03-30T09:16:05.328Z,101413.88
2019-03-30T09:18:29.835Z,101412.42
2019-03-30T09:20:54.251Z,101413.64
2019-03-30T09:23:18.697Z,101408.05
2019-03-30T09:25:43.125Z,101408.72
2019-03-30T09:28:07.638Z,101411.00
2019-03-30T09:30:32.125Z,101403.23
2019-03-30T09:32:56.566Z,101400.55
2019-03-30T09:35:21.041Z,101398.69
2019-03-30T09:37:45.466Z,101394.48
2019-03-30T09:40:11.507Z,101389.21
2019-03-30T09:42:36.154Z,101390.84
2019-03-30T09:45:00.668Z,101386.37
2019-03-30T09:47:25.088Z,101380.22
2019-03-30T09:49:49.534Z,101382.20
2019-03-30T09:52:13.952Z,101380.05
2019-03-30T09:54:38.392Z,101377.05
2019-03-30T09:57:02.808Z,101367.38
2019-03-30T09:59:27.233Z,101366.19
2019-03-30T10:01:51.650Z,101368.80
2019-03-30T10:04:16.089Z,101368.13
2019-03-30T10:06:40.507Z,101365.98
2019-03-30T10:09:06.597Z,101358.06
2019-03-30T10:11:31.003Z,101346.70
2019-03-30T10:13:55.412Z,101353.12
2019-03-30T10:16:19.847Z,101347.12
2019-03-30T10:18:44.255Z,101352.31
2019-03-30T10:21:08.699Z,101346.09
2019-03-30T10:23:33.192Z,101339.30
2019-03-30T10:25:57.736Z,101331.56
2019-03-30T10:28:22.254Z,101332.50
2019-03-30T10:30:46.687Z,101338.69
2019-03-30T10:33:11.718Z,101327.84
2019-03-30T10:35:36.343Z,101328.48
2019-03-30T10:38:00.769Z,101331.16
2019-03-30T10:40:25.203Z,101323.23
2019-03-30T10:42:49.621Z,101322.27
2019-03-30T10:45:14.297Z,101331.65
2019-03-30T10:47:38.707Z,101316.34
2019-03-30T10:50:03.995Z,101312.75
2019-03-30T10:52:28.414Z,101310.70
2019-03-30T10:54:53.384Z,101311.20
2019-03-30T10:57:18.639Z,101305.05
2019-03-30T10:59:43.271Z,101307.09
2019-03-30T11:02:07.771Z,101294.30
2019-03-30T11:04:32.194Z,101295.67
2019-03-30T11:06:56.642Z,101287.70
2019-03-30T11:09:21.219Z,101280.70
2019-03-30T11:11:45.672Z,101295.39
2019-03-30T11:14:10.127Z,101276.48
2019-03-30T11:16:34.562Z,101286.33
2019-03-30T11:18:59.052Z,101286.28
2019-03-30T11:21:23.486Z,101273.19
2019-03-30T11:23:47.910Z,101269.60
2019-03-30T11:26:12.412Z,101272.09
2019-03-30T11:28:36.934Z,101267.13
2019-03-30T11:31:01.468Z,101264.37
2019-03-30T11:33:25.888Z,101265.49
2019-03-30T11:35:50.671Z,101260.07
2019-03-30T11:38:15.096Z,101255.23
2019-03-30T11:40:39.512Z,101259.43
2019-03-30T11:43:03.922Z,101256.12
2019-03-30T11:45:28.612Z,101245.14
2019-03-30T11:47:53.025Z,101240.77
2019-03-30T11:50:17.538Z,101234.19
2019-03-30T11:52:41.950Z,101233.27
2019-03-30T11:55:20.915Z,101231.16
2019-03-30T11:57:34.034Z,101231.30
2019-03-30T11:59:58.447Z,101221.53
2019-03-30T12:02:28.156Z,101218.36
2019-03-30T12:04:49.128Z,101220.45
2019-03-30T12:07:13.567Z,101216.09
2019-03-30T12:09:37.981Z,101215.05
2019-03-30T12:12:02.401Z,101201.98
2019-03-30T12:14:26.821Z,101215.52
2019-03-30T12:16:51.266Z,101199.66
2019-03-30T12:19:15.688Z,101199.20
2019-03-30T12:21:40.603Z,101199.98
2019-03-30T12:24:05.044Z,101200.86
2019-03-30T12:26:29.485Z,101195.88
2019-03-30T12:28:53.901Z,101186.98
2019-03-30T12:31:18.358Z,101184.09
2019-03-30T12:33:42.839Z,101178.87
2019-03-30T12:36:07.359Z,101181.34
2019-03-30T12:38:31.846Z,101169.77
2019-03-30T12:40:58.007Z,101163.49
2019-03-30T12:43:22.483Z,101158.08
2019-03-30T12:45:46.933Z,101157.83
2019-03-30T12:48:11.516Z,101152.47
2019-03-30T12:50:35.925Z,101151.77
2019-03-30T12:53:00.372Z,101148.81
2019-03-30T12:55:24.783Z,101147.84
2019-03-30T12:57:49.222Z,101140.95
2019-03-30T13:00:14.038Z,101131.84
2019-03-30T13:02:38.488Z,101133.97
2019-03-30T13:05:02.975Z,101131.06
2019-03-30T13:07:27.413Z,101115.36
2019-03-30T13:09:51.820Z,101115.36
2019-03-30T13:12:16.259Z,101121.83
2019-03-30T13:14:40.662Z,101127.73
2019-03-30T13:17:05.111Z,101120.15
2019-03-30T13:19:29.519Z,101116.33
2019-03-30T13:21:53.953Z,101114.22
2019-03-30T13:24:18.436Z,101105.07
2019-03-30T13:26:42.898Z,101114.58
2019-03-30T13:29:07.452Z,101111.06
2019-03-30T13:31:31.930Z,101107.56
2019-03-30T13:33:56.365Z,101103.58
2019-03-30T13:36:22.418Z,101095.94
2019-03-30T13:38:46.843Z,101098.80
2019-03-30T13:41:13.941Z,101103.27
2019-03-30T13:43:37.383Z,101100.69
2019-03-30T13:46:01.798Z,101106.42
2019-03-30T13:48:26.238Z,101091.29
2019-03-30T13:50:50.661Z,101088.67
2019-03-30T13:53:15.106Z,101087.27
2019-03-30T13:55:39.502Z,101086.44
2019-03-30T13:58:04.108Z,101093.25
2019-03-30T14:00:28.505Z,101086.09
2019-03-30T14:02:52.948Z,101086.77
2019-03-30T14:05:17.356Z,101084.31
2019-03-30T14:07:41.863Z,101089.88
2019-03-30T14:10:08.520Z,101070.44
2019-03-30T14:12:32.990Z,101070.42
2019-03-30T14:14:57.410Z,101080.14
2019-03-30T14:17:21.816Z,101065.64
2019-03-30T14:19:47.734Z,101068.61
2019-03-30T14:22:12.151Z,101129.36
2019-03-30T14:24:36.578Z,101065.66
2019-03-30T14:27:00.985Z,101077.31
2019-03-30T14:29:25.515Z,101071.60
2019-03-30T14:31:49.920Z,101070.96
2019-03-30T14:34:14.343Z,101070.96
2019-03-30T14:36:38.761Z,101060.92
2019-03-30T14:39:04.617Z,101056.30
2019-03-30T14:41:29.038Z,101053.70
2019-03-30T14:43:53.449Z,101050.22
2019-03-30T14:46:17.930Z,101055.31
2019-03-30T14:48:42.431Z,101042.08
2019-03-30T14:51:06.901Z,101042.08
2019-03-30T14:53:31.319Z,101048.92
2019-03-30T14:55:55.720Z,101051.33
2019-03-30T14:58:20.306Z,101033.93
2019-03-30T15:00:44.770Z,101036.52
2019-03-30T15:03:09.228Z,101021.91
2019-03-30T15:05:33.667Z,101027.33
2019-03-30T15:07:58.059Z,101027.33
2019-03-30T15:10:22.552Z,101018.56
2019-03-30T15:12:46.955Z,101021.36
2019-03-30T15:15:12.928Z,101018.89
2019-03-30T15:17:40.463Z,101012.80
2019-03-30T15:20:04.651Z,101014.45
2019-03-30T15:22:29.057Z,101015.41
2019-03-30T15:24:53.490Z,101022.86
2019-03-30T15:27:18.376Z,101008.62
2019-03-30T15:29:45.413Z,101008.62
2019-03-30T15:32:08.910Z,101008.12
2019-03-30T15:34:33.345Z,101006.47
2019-03-30T15:36:57.817Z,100994.36
2019-03-30T15:39:22.412Z,101000.19
2019-03-30T15:41:46.832Z,101010.98
2019-03-30T15:44:11.287Z,100991.64
2019-03-30T15:46:35.689Z,100991.64
2019-03-30T15:49:00.120Z,100995.57
2019-03-30T15:51:24.589Z,100991.05
2019-03-30T15:53:50.034Z,101002.14
2019-03-30T15:56:14.913Z,100994.06
2019-03-30T15:58:39.327Z,100989.69
2019-03-30T16:01:03.814Z,100988.40
2019-03-30T16:03:29.096Z,100985.06
2019-03-30T16:05:53.528Z,100988.53
2019-03-30T16:08:18.087Z,100989.70
2019-03-30T16:10:42.518Z,100980.42
2019-03-30T16:13:06.919Z,100985.35
2019-03-30T16:15:31.342Z,100980.53
2019-03-30T16:17:55.749Z,100981.13
2019-03-30T16:20:20.243Z,100984.64
2019-03-30T16:22:45.980Z,100979.97
2019-03-30T16:25:10.533Z,100975.63
2019-03-30T16:27:35.082Z,100979.00
2019-03-30T16:29:59.522Z,100975.44
2019-03-30T16:32:23.931Z,100980.14
2019-03-30T16:34:48.387Z,100971.55
2019-03-30T16:37:12.865Z,100969.81
2019-03-30T16:39:37.335Z,100966.03
2019-03-30T16:42:01.774Z,100975.36
2019-03-30T16:44:26.187Z,100973.14
2019-03-30T16:46:50.677Z,100974.66
2019-03-30T16:49:15.101Z,100981.08
2019-03-30T16:51:39.548Z,100981.30
2019-03-30T16:54:04.406Z,100974.94
2019-03-30T16:56:28.836Z,100974.77
2019-03-30T16:58:53.255Z,100978.49
2019-03-30T17:01:17.678Z,100976.80
2019-03-30T17:03:42.086Z,100982.39
2019-03-30T17:06:06.511Z,100979.02
2019-03-30T17:08:30.945Z,100974.11
2019-03-30T17:10:55.369Z,100977.67
2019-03-30T17:13:19.794Z,100976.48
2019-03-30T17:15:44.197Z,100975.13
2019-03-30T17:18:08.634Z,100971.45
2019-03-30T17:20:33.047Z,100972.53
2019-03-30T17:22:58.994Z,100973.54
2019-03-30T17:25:23.489Z,100978.83
2019-03-30T17:27:58.246Z,100976.35
2019-03-30T17:30:14.367Z,100979.88
2019-03-30T17:32:38.944Z,100978.41
2019-03-30T17:35:04.046Z,100975.01
2019-03-30T17:37:28.570Z,100975.63
2019-03-30T17:39:52.981Z,100982.56
2019-03-30T17:42:17.497Z,100983.87
2019-03-30T17:44:41.919Z,100990.44
2019-03-30T17:47:06.438Z,100985.78
2019-03-30T17:49:30.839Z,100981.63
2019-03-30T17:51:55.264Z,100985.46
2019-03-30T17:54:19.737Z,100984.22
2019-03-30T17:56:44.190Z,100982.09
2019-03-30T17:59:08.588Z,100981.38
2019-03-30T18:01:33.493Z,100976.29
2019-03-30T18:03:57.897Z,100984.48
2019-03-30T18:06:22.309Z,100983.09
2019-03-30T18:08:46.755Z,100982.59
2019-03-30T18:11:11.325Z,100986.39
2019-03-30T18:13:36.947Z,100982.11
2019-03-30T18:16:01.543Z,100989.02
2019-03-30T18:18:25.971Z,100990.77
2019-03-30T18:20:50.383Z,100990.05
2019-03-30T18:23:14.819Z,100991.79
2019-03-30T18:25:39.241Z,101001.78
2019-03-30T18:28:03.741Z,101000.77
2019-03-30T18:30:39.642Z,101003.34
2019-03-30T18:33:04.235Z,101004.19
2019-03-30T18:35:30.612Z,101006.27
2019-03-30T18:37:55.416Z,101005.59
2019-03-30T18:40:28.547Z,101017.34
2019-03-30T18:42:53.129Z,101017.80
2019-03-30T18:45:28.053Z,101020.95
2019-03-30T18:47:53.222Z,101021.84
2019-03-30T18:50:17.877Z,101022.17
2019-03-30T18:52:42.720Z,101021.94
2019-03-30T18:55:08.066Z,101023.38
2019-03-30T18:57:32.467Z,101030.58
2019-03-30T18:59:56.899Z,101032.39
2019-03-30T19:02:21.301Z,101031.20
2019-03-30T19:04:45.730Z,101029.51
2019-03-30T19:07:10.160Z,101034.30
2019-03-30T19:09:34.590Z,101033.86
2019-03-30T19:11:59.011Z,101033.96
2019-03-30T19:14:23.531Z,101035.78
2019-03-30T19:16:47.933Z,101029.96
2019-03-30T19:19:12.357Z,101040.90
2019-03-30T19:21:36.791Z,101036.81
2019-03-30T19:24:01.291Z,101043.43
2019-03-30T19:26:25.694Z,101042.19
2019-03-30T19:28:56.579Z,101032.30
2019-03-30T19:31:19.415Z,101034.02
2019-03-30T19:33:43.841Z,101027.75
2019-03-30T19:36:10.031Z,101037.01
2019-03-30T19:38:34.451Z,101027.47
2019-03-30T19:40:58.860Z,101030.56
2019-03-30T19:43:23.283Z,101031.06
2019-03-30T19:45:47.868Z,101031.83
2019-03-30T19:48:12.291Z,101028.99
2019-03-30T19:50:36.781Z,101027.72
2019-03-30T19:53:01.217Z,101026.67
2019-03-30T19:55:27.312Z,101024.05
2019-03-30T19:57:51.715Z,101026.22
2019-03-30T20:00:16.755Z,101026.88
2019-03-30T20:02:41.439Z,101025.62
2019-03-30T20:05:08.426Z,101030.31
2019-03-30T20:07:32.918Z,101030.61
2019-03-30T20:09:57.359Z,101028.28
2019-03-30T20:12:21.857Z,101031.23
2019-03-30T20:14:46.410Z,101029.22
2019-03-30T20:17:10.836Z,101036.30
2019-03-30T20:19:35.273Z,101034.66
2019-03-30T20:21:59.708Z,101033.84
2019-03-30T20:24:24.156Z,101042.48
2019-03-30T20:26:48.606Z,101034.34
2019-03-30T20:29:24.658Z,101034.99
2019-03-30T20:31:39.171Z,101044.44
2019-03-30T20:34:03.660Z,101050.09
2019-03-30T20:36:28.085Z,101054.92
2019-03-30T20:38:52.492Z,101055.61
2019-03-30T20:41:16.926Z,101060.01
2019-03-30T20:43:41.339Z,101057.86
2019-03-30T20:46:05.770Z,101052.70
2019-03-30T20:48:30.183Z,101051.92
2019-03-30T20:50:54.596Z,101053.11
2019-03-30T20:53:19.004Z,101059.31
2019-03-30T20:55:43.455Z,101057.14
2019-03-30T20:58:07.989Z,101055.68
2019-03-30T21:00:32.495Z,101058.03
2019-03-30T21:02:56.975Z,101059.11
2019-03-30T21:05:21.409Z,101054.85
2019-03-30T21:07:45.836Z,101058.61
2019-03-30T21:10:10.821Z,101063.11
2019-03-30T21:12:35.237Z,101074.95
2019-03-30T21:14:59.691Z,101074.51
2019-03-30T21:17:24.117Z,101069.23
2019-03-30T21:19:48.605Z,101073.23
2019-03-30T21:22:13.040Z,101069.70
2019-03-30T21:24:37.447Z,101069.02
2019-03-30T21:27:01.955Z,101071.11
2019-03-30T21:29:26.378Z,101072.45
2019-03-30T21:31:50.817Z,101076.64
2019-03-30T21:34:15.214Z,101070.18
2019-03-30T21:36:39.637Z,101069.05
2019-03-30T21:39:05.998Z,101071.23
2019-03-30T21:41:30.436Z,101073.62
2019-03-30T21:43:54.852Z,101070.58
2019-03-30T21:46:19.306Z,101079.30
2019-03-30T21:48:43.712Z,101074.41
2019-03-30T21:51:08.172Z,101072.98
2019-03-30T21:53:32.587Z,101073.88
2019-03-30T21:55:57.032Z,101071.34
2019-03-30T21:58:21.461Z,101072.36
2019-03-30T22:00:45.929Z,101065.98
2019-03-30T22:03:10.729Z,101069.28
2019-03-30T22:05:35.791Z,101065.71
2019-03-30T22:08:00.771Z,101073.84
2019-03-30T22:10:27.303Z,101074.20
2019-03-30T22:12:51.730Z,101071.14
2019-03-30T22:15:19.182Z,101070.81
2019-03-30T22:17:43.620Z,101076.19
2019-03-30T22:20:08.127Z,101078.38
2019-03-30T22:22:32.564Z,101063.19
2019-03-30T22:24:56.988Z,101090.03
2019-03-30T22:27:21.435Z,101091.53
2019-03-30T22:29:45.873Z,101085.00
2019-03-30T22:32:10.321Z,101096.89
2019-03-30T22:34:34.811Z,101097.52
2019-03-30T22:36:59.270Z,101104.06
2019-03-30T22:39:23.706Z,101104.31
2019-03-30T22:41:48.139Z,101099.20
2019-03-30T22:44:12.614Z,101095.69
2019-03-30T22:46:37.014Z,101095.96
2019-03-30T22:49:01.546Z,101094.98
2019-03-30T22:51:25.989Z,101099.62
2019-03-30T22:53:50.437Z,101101.22
2019-03-30T22:56:14.932Z,101104.44
2019-03-30T22:58:39.582Z,101101.78
2019-03-30T23:01:05.781Z,101106.44
2019-03-30T23:03:30.271Z,101107.09
2019-03-30T23:05:54.834Z,101104.84
2019-03-30T23:08:19.339Z,101106.25
2019-03-30T23:10:43.793Z,101109.27
2019-03-30T23:13:08.326Z,101109.98
2019-03-30T23:15:32.954Z,101105.84
2019-03-30T23:17:57.551Z,101107.69
2019-03-30T23:20:22.044Z,101108.08
2019-03-30T23:22:46.477Z,101109.75
2019-03-30T23:25:10.990Z,101111.77
2019-03-30T23:27:35.477Z,101108.42
2019-03-30T23:29:59.906Z,101109.75
2019-03-30T23:32:24.320Z,101103.17
2019-03-30T23:34:48.765Z,101109.08
2019-03-30T23:37:13.197Z,101118.75
2019-03-30T23:39:37.632Z,101114.38
2019-03-30T23:42:02.044Z,101113.72
2019-03-30T23:44:26.551Z,101114.82
2019-03-30T23:46:50.970Z,101112.14
2019-03-30T23:49:15.421Z,101110.91
2019-03-30T23:51:39.832Z,101112.89
2019-03-30T23:54:04.420Z,101110.86
2019-03-30T23:56:28.920Z,101108.47
2019-03-30T23:58:53.498Z,101116.00
